Time;durP1;ratioP1;P1;durP2;ratioP2;P2;SDS_P1;SDS_P2;PMS_P1;PMS_P2;Temp;Humidity;BMP_temperature;BMP_pressure;BME280_temperature;BME280_humidity;BME280_pressure;Samples;Min_cycle;Max_cycle;Signal;HPM_P1;HPM_P2
2021/08/27 00:02:45;;;;;;;6.85;4.70;;;11.80;99.90;;;;;;6175014;28;20505;-81
2021/08/27 00:05:45;;;;;;;7.32;5.45;;;11.80;99.90;;;;;;6174563;28;20117;-82
2021/08/27 00:08:46;;;;;;;6.72;5.28;;;12.00;99.90;;;;;;6174528;28;20027;-79
2021/08/27 00:11:47;;;;;;;7.43;5.00;;;11.90;99.90;;;;;;6157097;28;20652;-83
2021/08/27 00:14:47;;;;;;;9.50;5.10;;;11.90;99.90;;;;;;6161122;28;20030;-82
2021/08/27 00:17:48;;;;;;;10.20;4.93;;;11.80;99.90;;;;;;6179666;28;20023;-79
2021/08/27 00:20:49;;;;;;;10.50;5.88;;;12.20;99.90;;;;;;6179084;28;20417;-80
2021/08/27 00:23:49;;;;;;;6.75;4.97;;;11.90;99.90;;;;;;6178712;28;20279;-79
2021/08/27 00:26:50;;;;;;;8.77;5.80;;;12.00;99.90;;;;;;6161744;28;20031;-81
2021/08/27 00:29:50;;;;;;;13.10;6.38;;;11.90;99.90;;;;;;6178802;28;20033;-80
2021/08/27 00:32:51;;;;;;;7.57;4.95;;;11.80;99.90;;;;;;6179069;28;20105;-79
2021/08/27 00:35:52;;;;;;;7.63;5.40;;;12.00;99.90;;;;;;6178721;28;20019;-79
2021/08/27 00:38:52;;;;;;;6.15;5.13;;;12.00;99.90;;;;;;6161216;28;20042;-79
2021/08/27 00:41:53;;;;;;;9.25;5.32;;;12.00;99.90;;;;;;6161681;28;20069;-79
2021/08/27 00:44:53;;;;;;;10.27;5.70;;;11.90;99.90;;;;;;6178502;28;20046;-79
2021/08/27 00:47:54;;;;;;;7.88;5.00;;;11.90;99.90;;;;;;6178938;28;20023;-79
2021/08/27 00:50:54;;;;;;;10.60;5.50;;;12.00;99.90;;;;;;6178345;28;20442;-80
2021/08/27 00:53:55;;;;;;;6.60;5.07;;;12.00;99.90;;;;;;6161077;28;20376;-78
2021/08/27 00:56:56;;;;;;;8.38;5.45;;;11.90;99.90;;;;;;6178074;28;20516;-82
2021/08/27 00:59:57;;;;;;;9.25;5.50;;;;;;;;;;6178121;28;20070;-81
2021/08/27 01:02:58;;;;;;;8.13;5.25;;;12.00;99.90;;;;;;6178404;28;20015;-81
2021/08/27 01:06:23;;;;;;;8.80;5.68;;;12.10;99.90;;;;;;6160712;28;20073;-79
2021/08/27 01:09:45;;;;;;;9.23;5.47;;;12.20;99.90;;;;;;6177799;28;20423;-79
2021/08/27 01:13:03;;;;;;;10.77;5.28;;;12.40;99.90;;;;;;6178350;28;20042;-80
2021/08/27 01:16:10;;;;;;;9.52;5.20;;;12.20;99.90;;;;;;6161946;28;20023;-79
2021/08/27 01:19:43;;;;;;;8.73;6.10;;;12.40;99.90;;;;;;6161056;28;20457;-81
2021/08/27 01:23:02;;;;;;;6.95;5.05;;;12.30;99.90;;;;;;6163762;28;20030;-82
2021/08/27 01:26:03;;;;;;;12.32;5.75;;;12.00;99.90;;;;;;6161380;28;20030;-82
2021/08/27 01:29:04;;;;;;;7.68;6.00;;;12.30;99.90;;;;;;6160414;28;20023;-80
2021/08/27 01:32:08;;;;;;;9.10;5.82;;;12.20;99.90;;;;;;6144378;28;20377;-83
2021/08/27 01:35:09;;;;;;;7.20;5.53;;;12.30;99.90;;;;;;6160476;28;20381;-78
2021/08/27 01:38:10;;;;;;;8.60;5.15;;;12.40;99.90;;;;;;6160123;28;20069;-81
2021/08/27 01:41:10;;;;;;;8.38;5.60;;;12.20;99.90;;;;;;6152093;29;20074;-80
2021/08/27 01:44:11;;;;;;;8.13;5.88;;;12.50;99.90;;;;;;6151990;29;20031;-79
2021/08/27 01:47:13;;;;;;;8.93;5.45;;;12.60;99.90;;;;;;6151912;29;20796;-79
2021/08/27 01:50:14;;;;;;;8.18;5.38;;;12.50;99.90;;;;;;6152108;28;20032;-79
2021/08/27 01:53:14;;;;;;;10.23;6.07;;;12.50;99.90;;;;;;6152369;29;20074;-83
2021/08/27 01:56:15;;;;;;;10.63;6.07;;;12.40;99.90;;;;;;6152048;29;20110;-82
2021/08/27 01:59:15;;;;;;;12.07;5.63;;;12.50;99.90;;;;;;6151745;28;20023;-82
2021/08/27 02:02:16;;;;;;;8.23;5.32;;;12.30;99.90;;;;;;6151666;29;20019;-78
2021/08/27 02:05:17;;;;;;;8.20;5.60;;;12.40;99.90;;;;;;6152953;29;20031;-79
2021/08/27 02:08:18;;;;;;;9.05;5.72;;;12.50;99.90;;;;;;6151960;29;20082;-79
2021/08/27 02:11:19;;;;;;;9.90;5.53;;;12.50;99.90;;;;;;6151585;28;20532;-83
2021/08/27 02:14:20;;;;;;;8.10;5.63;;;12.40;99.90;;;;;;6151248;28;20518;-80
2021/08/27 02:17:20;;;;;;;6.75;5.78;;;12.40;99.90;;;;;;6151348;29;20063;-79
2021/08/27 02:20:21;;;;;;;9.27;5.65;;;12.20;99.90;;;;;;6152778;28;20035;-79
2021/08/27 02:23:23;;;;;;;9.65;5.80;;;12.40;99.90;;;;;;6151235;28;20035;-79
2021/08/27 02:26:24;;;;;;;;;;;12.90;99.90;;;;;;6151575;29;20027;-84
2021/08/27 02:29:25;;;;;;;9.00;5.80;;;12.40;99.90;;;;;;6150852;28;19961;-83
2021/08/27 02:32:26;;;;;;;8.88;5.57;;;12.30;99.90;;;;;;6150860;28;20019;-79
2021/08/27 02:35:26;;;;;;;8.07;5.63;;;12.30;99.90;;;;;;6134766;29;20124;-81
2021/08/27 02:38:28;;;;;;;9.05;5.88;;;12.50;99.90;;;;;;6150015;28;20469;-80
2021/08/27 02:41:29;;;;;;;10.47;5.40;;;12.10;99.90;;;;;;6159077;28;20019;-83
2021/08/27 02:44:29;;;;;;;8.18;5.50;;;12.20;99.90;;;;;;6175830;28;20100;-80
2021/08/27 02:47:30;;;;;;;8.00;5.80;;;12.30;99.90;;;;;;6176315;28;20045;-79
2021/08/27 02:50:34;;;;;;;7.22;5.30;;;12.10;99.90;;;;;;6158403;28;20023;-82
2021/08/27 02:53:34;;;;;;;8.07;5.47;;;12.30;99.90;;;;;;6158657;28;20680;-84
2021/08/27 02:56:37;;;;;;;7.85;5.80;;;12.10;99.90;;;;;;6158529;28;20023;-77
2021/08/27 02:59:38;;;;;;;6.80;4.88;;;12.30;99.90;;;;;;6158369;28;20026;-79
2021/08/27 03:02:39;;;;;;;6.70;4.82;;;12.30;99.90;;;;;;6158044;28;20417;-81
2021/08/27 03:05:40;;;;;;;12.52;5.43;;;12.40;99.90;;;;;;6158249;28;20089;-79
2021/08/27 03:08:43;;;;;;;6.65;5.00;;;12.40;99.90;;;;;;6175009;28;20461;-80
2021/08/27 03:11:54;;;;;;;7.53;5.30;;;12.50;99.90;;;;;;6158010;28;20034;-85
2021/08/27 03:14:55;;;;;;;9.18;5.38;;;12.30;99.90;;;;;;6159082;28;20027;-82
2021/08/27 03:18:02;;;;;;;8.77;5.47;;;12.40;99.90;;;;;;6158059;28;20035;-82
2021/08/27 03:21:35;;;;;;;7.82;5.60;;;12.30;99.90;;;;;;6158602;28;20029;-80
2021/08/27 03:24:50;;;;;;;6.95;5.38;;;12.30;99.90;;;;;;6139287;28;20047;-83
2021/08/27 03:27:53;;;;;;;6.93;5.68;;;12.30;99.90;;;;;;6158022;28;20043;-79
2021/08/27 03:30:54;;;;;;;8.98;5.57;;;12.20;99.90;;;;;;6157947;28;20473;-81
2021/08/27 03:33:55;;;;;;;6.75;5.95;;;12.40;99.90;;;;;;6157603;28;20030;-80
2021/08/27 03:36:59;;;;;;;8.73;5.57;;;12.20;99.90;;;;;;6157600;28;20027;-79
2021/08/27 03:40:02;;;;;;;10.60;5.40;;;12.20;99.90;;;;;;6157633;28;20046;-81
2021/08/27 03:43:02;;;;;;;11.38;5.32;;;12.30;99.90;;;;;;6158093;28;20015;-79
2021/08/27 03:46:03;;;;;;;8.65;5.43;;;12.20;99.90;;;;;;6141523;28;20154;-82
2021/08/27 03:49:04;;;;;;;16.35;5.97;;;12.20;99.90;;;;;;6162262;28;20450;-80
2021/08/27 03:52:05;;;;;;;9.82;5.22;;;12.20;99.90;;;;;;6182572;28;20058;-79
2021/08/27 03:55:06;;;;;;;7.90;5.22;;;12.20;99.90;;;;;;6165676;28;20043;-83
2021/08/27 03:58:08;;;;;;;6.30;5.45;;;12.20;99.90;;;;;;6165452;28;20051;-79
2021/08/27 04:01:09;;;;;;;7.40;5.40;;;12.30;99.90;;;;;;6165606;28;20027;-82
2021/08/27 04:04:13;;;;;;;9.65;4.95;;;12.30;99.90;;;;;;6149011;28;20408;-79
2021/08/27 04:07:13;;;;;;;9.95;5.75;;;12.20;99.90;;;;;;6149711;28;20037;-79
2021/08/27 04:10:16;;;;;;;6.45;5.22;;;12.20;99.90;;;;;;6149301;28;20031;-82
2021/08/27 04:13:17;;;;;;;6.72;5.60;;;12.30;99.90;;;;;;6182785;28;20026;-81
2021/08/27 04:16:17;;;;;;;12.80;5.30;;;12.30;99.90;;;;;;6165214;28;20455;-82
2021/08/27 04:19:18;;;;;;;7.07;5.45;;;;;;;;;;6182934;28;20481;-82
2021/08/27 04:22:19;;;;;;;9.32;5.22;;;12.20;99.90;;;;;;6182806;28;20381;-83
2021/08/27 04:25:20;;;;;;;7.40;5.65;;;;;;;;;;6182536;28;20460;-80
2021/08/27 04:28:21;;;;;;;8.27;5.45;;;12.10;99.90;;;;;;6165442;28;20034;-79
2021/08/27 04:31:21;;;;;;;10.88;6.70;;;12.10;99.90;;;;;;6182141;28;20101;-84
2021/08/27 04:34:22;;;;;;;13.07;8.27;;;12.10;99.90;;;;;;6165101;28;20035;-80
2021/08/27 04:37:22;;;;;;;14.15;8.73;;;12.00;99.90;;;;;;6182543;28;20106;-78
2021/08/27 04:40:24;;;;;;;16.02;9.73;;;12.00;99.90;;;;;;6164985;28;20050;-79
2021/08/27 04:43:25;;;;;;;12.27;9.57;;;12.10;99.90;;;;;;6164913;28;20027;-82
2021/08/27 04:46:26;;;;;;;13.15;9.43;;;12.00;99.90;;;;;;6181842;28;20034;-79
2021/08/27 04:49:26;;;;;;;10.43;7.57;;;12.00;99.90;;;;;;6182469;28;20425;-80
2021/08/27 04:52:27;;;;;;;9.20;6.32;;;12.10;99.90;;;;;;6164837;28;20121;-80
2021/08/27 04:55:27;;;;;;;7.97;6.05;;;12.00;99.90;;;;;;6181993;28;20118;-79
2021/08/27 04:58:28;;;;;;;6.85;5.50;;;12.10;99.90;;;;;;6181908;28;20034;-81
2021/08/27 05:01:29;;;;;;;6.45;5.80;;;12.10;99.90;;;;;;6177395;28;20026;-83
2021/08/27 05:04:30;;;;;;;8.60;6.57;;;11.90;99.90;;;;;;6178361;28;20023;-78
2021/08/27 05:07:30;;;;;;;10.30;6.30;;;12.10;99.90;;;;;;6161038;28;20056;-79
2021/08/27 05:10:31;;;;;;;9.25;6.18;;;12.10;99.90;;;;;;6177839;28;20097;-82
2021/08/27 05:13:31;;;;;;;7.80;5.65;;;12.10;99.90;;;;;;6178187;28;20158;-82
2021/08/27 05:16:32;;;;;;;8.38;6.18;;;12.20;99.90;;;;;;6177954;28;20365;-79
2021/08/27 05:19:32;;;;;;;9.05;6.25;;;12.20;99.90;;;;;;6177493;28;20023;-80
2021/08/27 05:22:33;;;;;;;8.95;5.43;;;12.30;99.90;;;;;;6178162;28;20043;-84
2021/08/27 05:25:34;;;;;;;8.13;5.30;;;12.30;99.90;;;;;;6160371;28;20475;-80
2021/08/27 05:28:34;;;;;;;8.35;5.82;;;12.30;99.90;;;;;;6177353;28;20401;-81
2021/08/27 05:31:35;;;;;;;9.45;5.63;;;12.70;99.90;;;;;;6177786;28;20030;-83
2021/08/27 05:34:35;;;;;;;9.02;5.65;;;12.40;99.90;;;;;;6177578;28;20026;-79
2021/08/27 05:37:36;;;;;;;8.23;5.15;;;12.40;99.90;;;;;;6177677;28;20030;-80
2021/08/27 05:40:37;;;;;;;8.85;6.03;;;12.50;99.90;;;;;;6177277;28;20074;-79
2021/08/27 05:43:37;;;;;;;8.15;5.90;;;12.50;99.90;;;;;;6177312;28;20031;-79
2021/08/27 05:46:38;;;;;;;9.18;6.05;;;12.50;99.90;;;;;;6160023;28;20098;-79
2021/08/27 05:49:38;;;;;;;6.63;4.90;;;12.60;99.90;;;;;;6177510;28;20442;-83
2021/08/27 05:52:39;;;;;;;8.38;5.55;;;12.60;99.90;;;;;;6159986;28;20130;-81
2021/08/27 05:55:40;;;;;;;8.52;5.03;;;12.90;99.90;;;;;;6176826;28;20117;-79
2021/08/27 05:58:40;;;;;;;11.38;5.43;;;12.80;99.90;;;;;;6159890;28;20026;-82
2021/08/27 06:01:41;;;;;;;8.60;5.45;;;12.80;99.90;;;;;;6177057;28;20535;-81
2021/08/27 06:04:41;;;;;;;7.72;5.53;;;12.90;99.90;;;;;;6159409;28;20041;-79
2021/08/27 06:07:42;;;;;;;7.28;5.28;;;13.10;99.90;;;;;;6176548;28;20031;-83
2021/08/27 06:10:43;;;;;;;6.97;5.50;;;13.10;99.90;;;;;;6176488;28;20023;-82
2021/08/27 06:13:43;;;;;;;8.02;6.03;;;13.10;99.90;;;;;;6176494;28;20031;-79
2021/08/27 06:16:44;;;;;;;8.13;5.70;;;13.20;99.90;;;;;;6177116;28;20026;-82
2021/08/27 06:19:45;;;;;;;10.40;5.80;;;13.20;99.90;;;;;;6176654;28;20520;-79
2021/08/27 06:22:45;;;;;;;9.35;5.78;;;13.20;99.90;;;;;;6176182;28;20062;-78
2021/08/27 06:25:46;;;;;;;7.97;5.55;;;13.20;99.90;;;;;;6143112;28;20042;-81
2021/08/27 06:28:46;;;;;;;7.97;5.47;;;13.30;99.90;;;;;;6176114;28;20073;-85
2021/08/27 06:31:47;;;;;;;10.43;5.90;;;13.40;99.90;;;;;;6176515;28;20019;-84
2021/08/27 06:34:47;;;;;;;6.55;5.30;;;13.40;99.90;;;;;;6158593;28;20022;-79
2021/08/27 06:41:07;;;;;;;7.15;5.85;;;13.50;99.90;;;;;;6161144;28;20050;-85
2021/08/27 06:44:08;;;;;;;7.30;5.50;;;13.60;99.90;;;;;;6160843;28;20057;-83
2021/08/27 06:47:08;;;;;;;9.02;6.10;;;13.70;99.90;;;;;;6175741;28;20030;-84
2021/08/27 06:50:09;;;;;;;11.77;6.15;;;13.70;99.90;;;;;;6176272;28;20432;-80
2021/08/27 06:53:13;;;;;;;9.30;5.72;;;;;;;;;;6175402;28;20021;-79
2021/08/27 07:03:53;;;;;;;8.05;6.20;;;13.80;99.90;;;;;;6268830;23;20459;-82
2021/08/27 07:06:54;;;;;;;8.23;6.32;;;13.80;99.90;;;;;;6158191;28;20059;-84
2021/08/27 07:09:55;;;;;;;9.15;6.68;;;13.80;99.90;;;;;;6158146;28;20465;-78
2021/08/27 07:13:13;;;;;;;8.88;6.03;;;13.60;99.90;;;;;;6175746;28;20081;-84
2021/08/27 07:20:08;;;;;;;8.02;6.60;;;13.50;99.90;;;;;;6121663;29;20036;-79
2021/08/27 07:23:30;;;;;;;6.80;6.10;;;13.70;99.90;;;;;;6124249;29;20492;-84
2021/08/27 07:31:24;;;;;;;;;;;;;;;;;;;;;
2021/08/27 07:34:24;;;;;;;9.27;7.22;;;16.60;99.90;;;;;;6077791;29;20153;-79
2021/08/27 07:37:36;;;;;;;9.15;7.30;;;14.30;99.90;;;;;;6062180;29;20087;-84
2021/08/27 07:41:21;;;;;;;11.55;7.43;;;14.40;99.90;;;;;;6077834;29;20037;-80
2021/08/27 07:44:21;;;;;;;10.73;8.32;;;14.20;99.90;;;;;;6054031;29;20053;-79
2021/08/27 07:47:22;;;;;;;9.23;7.75;;;14.50;99.90;;;;;;6023585;29;20034;-79
2021/08/27 07:50:22;;;;;;;9.50;7.63;;;14.60;99.90;;;;;;6015893;29;20037;-80
2021/08/27 07:53:29;;;;;;;10.35;7.90;;;14.70;99.90;;;;;;6030828;29;20030;-84
2021/08/27 07:56:30;;;;;;;9.95;7.60;;;14.70;99.90;;;;;;5985817;29;20030;-79
2021/08/27 07:59:30;;;;;;;12.68;7.88;;;14.70;99.90;;;;;;6031071;29;20170;-79
2021/08/27 08:02:31;;;;;;;12.65;8.35;;;14.80;99.90;;;;;;6030645;29;20548;-79
2021/08/27 08:05:31;;;;;;;10.40;7.55;;;14.70;99.90;;;;;;6082583;29;20201;-79
2021/08/27 08:08:35;;;;;;;11.32;9.05;;;14.90;99.90;;;;;;6123954;29;20044;-79
2021/08/27 08:11:36;;;;;;;13.38;9.02;;;14.60;99.90;;;;;;6124072;29;20028;-84
2021/08/27 08:14:36;;;;;;;10.27;8.43;;;14.60;99.90;;;;;;6123953;29;20498;-81
2021/08/27 08:17:37;;;;;;;11.05;8.40;;;14.50;99.90;;;;;;6124023;29;20031;-84
2021/08/27 08:20:38;;;;;;;10.82;7.80;;;14.50;99.90;;;;;;6139785;28;20043;-79
2021/08/27 08:23:46;;;;;;;12.27;9.45;;;14.30;99.90;;;;;;6140929;28;20015;-80
2021/08/27 08:26:46;;;;;;;12.60;9.13;;;14.40;99.90;;;;;;6156950;28;20464;-83
2021/08/27 08:29:47;;;;;;;12.90;10.43;;;14.40;99.90;;;;;;6174518;28;20077;-82
2021/08/27 08:32:48;;;;;;;15.20;10.63;;;14.50;99.90;;;;;;6174564;28;20023;-82
2021/08/27 08:35:48;;;;;;;17.75;10.48;;;14.50;99.90;;;;;;6176130;28;20027;-80
2021/08/27 08:38:49;;;;;;;13.75;10.82;;;14.60;99.90;;;;;;6179039;28;20098;-81
2021/08/27 08:41:50;;;;;;;13.48;10.68;;;14.80;99.90;;;;;;6178862;28;20346;-82
2021/08/27 08:44:51;;;;;;;14.98;11.02;;;14.90;99.90;;;;;;6145337;28;20126;-79
2021/08/27 08:47:51;;;;;;;17.23;11.82;;;15.00;99.90;;;;;;6161377;28;20023;-79
2021/08/27 08:50:52;;;;;;;13.70;9.93;;;15.20;99.90;;;;;;6161331;28;20433;-80
2021/08/27 08:53:53;;;;;;;15.55;11.45;;;15.40;99.90;;;;;;6178251;28;20038;-82
2021/08/27 08:56:53;;;;;;;17.00;10.90;;;15.60;99.90;;;;;;6145273;28;20031;-80
2021/08/27 08:59:54;;;;;;;20.55;12.55;;;15.80;99.90;;;;;;6178319;28;20039;-79
2021/08/27 09:02:55;;;;;;;15.82;12.15;;;15.90;99.90;;;;;;6178128;28;20109;-83
2021/08/27 09:05:55;;;;;;;14.48;11.45;;;16.00;99.90;;;;;;6178232;28;20048;-82
2021/08/27 09:09:00;;;;;;;12.73;10.40;;;16.00;99.90;;;;;;6144832;28;20062;-84
2021/08/27 09:12:01;;;;;;;13.43;10.88;;;16.00;99.90;;;;;;6161488;28;20022;-80
2021/08/27 09:15:07;;;;;;;15.13;11.40;;;16.00;99.90;;;;;;6178185;28;20412;-83
2021/08/27 09:18:09;;;;;;;16.65;11.82;;;15.90;99.90;;;;;;6161064;28;20457;-83
2021/08/27 09:21:29;;;;;;;18.42;12.88;;;15.90;99.90;;;;;;6177753;28;20038;-84
2021/08/27 09:24:30;;;;;;;16.83;12.00;;;15.90;99.90;;;;;;6177579;28;20138;-81
2021/08/27 09:27:31;;;;;;;14.88;11.45;;;15.80;99.90;;;;;;6177512;28;20373;-82
2021/08/27 09:30:53;;;;;;;12.98;11.15;;;15.80;99.90;;;;;;6177682;28;20062;-80
2021/08/27 09:33:56;;;;;;;17.08;12.32;;;15.90;99.90;;;;;;6176770;28;20132;-80
2021/08/27 09:36:58;;;;;;;14.48;11.63;;;16.00;99.90;;;;;;6177241;28;20062;-81
2021/08/27 09:39:58;;;;;;;13.20;10.48;;;16.30;99.90;;;;;;6159997;28;20413;-80
2021/08/27 09:42:59;;;;;;;12.05;10.15;;;16.50;99.90;;;;;;6144644;28;20081;-81
2021/08/27 09:46:00;;;;;;;17.92;10.52;;;16.60;99.90;;;;;;6159883;28;20034;-81
2021/08/27 09:49:02;;;;;;;13.55;10.65;;;16.60;99.90;;;;;;6177115;28;20098;-79
2021/08/27 09:52:04;;;;;;;11.00;8.82;;;16.40;99.90;;;;;;6144464;28;20050;-83
2021/08/27 09:55:08;;;;;;;23.10;8.15;;;16.10;99.90;;;;;;6160149;28;20026;-84
2021/08/27 09:58:12;;;;;;;9.27;7.47;;;15.80;99.90;;;;;;6159966;28;20031;-80
2021/08/27 10:01:13;;;;;;;7.50;6.63;;;15.50;99.90;;;;;;6159824;28;20026;-82
2021/08/27 10:04:14;;;;;;;9.50;8.25;;;15.40;99.90;;;;;;6159294;28;20069;-83
2021/08/27 10:07:24;;;;;;;7.20;6.50;;;15.30;99.90;;;;;;6159636;28;20153;-80
2021/08/27 10:10:26;;;;;;;9.68;7.10;;;15.20;99.90;;;;;;6176830;28;20361;-80
2021/08/27 10:13:27;;;;;;;7.60;6.10;;;15.20;99.90;;;;;;6159862;28;20134;-80
2021/08/27 10:16:31;;;;;;;7.90;6.00;;;15.20;99.90;;;;;;6176822;28;20031;-83
2021/08/27 10:20:24;;;;;;;8.00;6.25;;;15.40;99.90;;;;;;6159000;28;20113;-79
2021/08/27 10:24:04;;;;;;;7.93;6.00;;;16.70;99.90;;;;;;6177152;28;20019;-79
2021/08/27 10:27:07;;;;;;;6.43;5.68;;;16.90;99.90;;;;;;6161498;28;20050;-80
2021/08/27 10:30:08;;;;;;;5.40;4.90;;;15.70;99.90;;;;;;6158642;28;20027;-84
2021/08/27 10:33:09;;;;;;;5.18;4.68;;;;;;;;;;6176678;28;20097;-79
2021/08/27 10:36:12;;;;;;;6.95;5.53;;;16.10;99.90;;;;;;6176042;28;20026;-79
2021/08/27 10:39:49;;;;;;;8.80;6.38;;;16.20;99.90;;;;;;6176007;28;20030;-82
2021/08/27 10:42:50;;;;;;;6.18;4.97;;;16.40;99.90;;;;;;6145151;28;20033;-80
2021/08/27 10:45:51;;;;;;;9.95;5.30;;;16.50;99.90;;;;;;6175913;28;20138;-85
2021/08/27 10:48:53;;;;;;;6.43;5.68;;;16.60;99.90;;;;;;6158587;28;20363;-79
2021/08/27 10:51:54;;;;;;;7.73;5.93;;;16.70;99.90;;;;;;6158698;28;20033;-81
2021/08/27 10:55:12;;;;;;;8.52;6.15;;;16.70;99.90;;;;;;6175826;28;20712;-86
2021/08/27 10:58:15;;;;;;;8.15;5.22;;;16.90;99.90;;;;;;6174943;28;20022;-82
2021/08/27 11:01:27;;;;;;;6.40;5.75;;;17.10;99.90;;;;;;6158268;28;20037;-79
2021/08/27 11:04:41;;;;;;;9.87;6.23;;;17.00;99.90;;;;;;6175852;28;20050;-81
2021/08/27 11:07:42;;;;;;;7.57;5.53;;;17.30;99.90;;;;;;6159282;28;20284;-80
2021/08/27 11:11:17;;;;;;;6.78;5.88;;;17.70;99.90;;;;;;6158644;28;20019;-80
2021/08/27 11:14:21;;;;;;;10.80;7.25;;;18.70;99.90;;;;;;6171499;28;20039;-85
2021/08/27 11:17:22;;;;;;;11.40;6.15;;;20.30;99.90;;;;;;6158222;28;20069;-78
2021/08/27 11:20:28;;;;;;;7.22;5.13;;;20.10;99.90;;;;;;6158221;28;20034;-81
2021/08/27 11:23:29;;;;;;;6.15;5.30;;;20.50;99.90;;;;;;6175067;28;20101;-84
2021/08/27 11:26:40;;;;;;;8.75;5.50;;;20.30;99.90;;;;;;6141819;28;20484;-80
2021/08/27 11:29:41;;;;;;;9.10;5.97;;;20.20;99.90;;;;;;6158160;28;20046;-80
2021/08/27 11:32:42;;;;;;;6.20;4.65;;;20.30;99.90;;;;;;6141736;28;20065;-85
2021/08/27 11:35:46;;;;;;;6.35;4.80;;;20.50;99.40;;;;;;6157998;28;20372;-83
2021/08/27 11:38:51;;;;;;;6.68;5.38;;;20.50;99.60;;;;;;6157995;28;20517;-84
2021/08/27 11:41:51;;;;;;;8.65;5.55;;;20.00;99.50;;;;;;6175216;28;20055;-79
2021/08/27 11:45:05;;;;;;;6.53;5.20;;;19.80;99.90;;;;;;6141640;28;20471;-82
2021/08/27 11:48:06;;;;;;;6.07;4.80;;;19.50;99.90;;;;;;6174874;28;20073;-82
2021/08/27 11:51:12;;;;;;;7.43;5.20;;;19.30;99.90;;;;;;6157628;28;20227;-80
2021/08/27 11:54:20;;;;;;;8.10;4.88;;;19.30;99.90;;;;;;6142258;28;20061;-83
2021/08/27 11:57:21;;;;;;;7.55;4.80;;;19.50;99.90;;;;;;6174724;28;20082;-84
2021/08/27 12:00:43;;;;;;;6.38;4.80;;;19.90;99.90;;;;;;6157807;28;20127;-81
2021/08/27 12:03:44;;;;;;;7.10;5.10;;;20.60;99.90;;;;;;6174158;28;20086;-80
2021/08/27 12:06:45;;;;;;;6.85;4.97;;;;;;;;;;6174566;28;20033;-83
2021/08/27 12:09:46;;;;;;;6.70;4.88;;;;;;;;;;6176934;28;20039;-81
2021/08/27 12:12:47;;;;;;;6.40;5.10;;;20.30;99.90;;;;;;6161901;28;20042;-81
2021/08/27 12:15:48;;;;;;;6.45;4.65;;;20.40;99.20;;;;;;6162236;28;20533;-81
2021/08/27 12:18:52;;;;;;;6.88;4.93;;;19.90;99.90;;;;;;6145573;28;20031;-80
2021/08/27 12:22:01;;;;;;;6.93;4.93;;;20.00;99.80;;;;;;6179262;28;20519;-80
2021/08/27 12:25:02;;;;;;;5.68;5.05;;;19.90;98.90;;;;;;6162147;28;20049;-81
2021/08/27 12:28:03;;;;;;;7.80;4.93;;;19.90;99.60;;;;;;6179215;28;20470;-82
2021/08/27 12:31:04;;;;;;;6.00;4.90;;;20.00;99.90;;;;;;6145787;28;20062;-80
2021/08/27 12:34:05;;;;;;;7.28;5.22;;;19.80;99.90;;;;;;6161649;28;20042;-82
2021/08/27 12:37:06;;;;;;;6.03;4.35;;;19.70;99.90;;;;;;6178892;28;20504;-85
2021/08/27 12:40:14;;;;;;;6.30;4.97;;;19.70;99.90;;;;;;6161788;28;20062;-83
2021/08/27 12:43:16;;;;;;;5.47;4.65;;;19.90;97.70;;;;;;6178574;28;20122;-80
2021/08/27 12:46:30;;;;;;;6.82;4.03;;;20.00;98.90;;;;;;6161552;28;20118;-82
2021/08/27 12:49:31;;;;;;;7.80;4.97;;;20.00;98.00;;;;;;6161254;28;20038;-80
2021/08/27 12:52:31;;;;;;;5.88;5.28;;;20.20;99.90;;;;;;6178628;28;20027;-80
2021/08/27 12:55:32;;;;;;;6.63;4.82;;;20.20;99.90;;;;;;6178438;28;20030;-80
2021/08/27 12:58:33;;;;;;;8.25;5.00;;;20.40;98.70;;;;;;6178525;28;20027;-85
2021/08/27 13:01:34;;;;;;;15.38;5.68;;;21.00;98.70;;;;;;6160923;28;20468;-83
2021/08/27 13:04:45;;;;;;;8.30;4.88;;;20.90;98.50;;;;;;6160810;28;20093;-80
2021/08/27 13:07:45;;;;;;;5.53;4.15;;;21.10;95.60;;;;;;6161384;28;20027;-80
2021/08/27 13:11:06;;;;;;;11.50;6.85;;;21.00;96.20;;;;;;6177964;28;20027;-85
2021/08/27 13:14:22;;;;;;;7.15;3.88;;;21.00;97.60;;;;;;6150090;28;20022;-81
2021/08/27 13:17:23;;;;;;;5.85;3.80;;;21.40;96.20;;;;;;6177825;28;20031;-85
2021/08/27 13:20:27;;;;;;;5.10;3.22;;;21.40;96.30;;;;;;6177102;28;20030;-85
2021/08/27 13:23:27;;;;;;;5.38;3.40;;;21.40;94.40;;;;;;6160497;28;20338;-80
2021/08/27 13:26:28;;;;;;;4.63;2.90;;;21.60;99.90;;;;;;6177836;28;20034;-86
2021/08/27 13:29:29;;;;;;;4.97;2.92;;;21.50;94.60;;;;;;6177639;28;20054;-81
2021/08/27 13:32:41;;;;;;;4.82;2.85;;;21.60;94.20;;;;;;6160187;28;20076;-82
2021/08/27 13:35:42;;;;;;;3.83;2.85;;;;;;;;;;6177495;28;20488;-84
2021/08/27 13:38:43;;;;;;;4.40;3.17;;;21.80;91.00;;;;;;6160644;28;20034;-84
2021/08/27 13:41:44;;;;;;;7.32;2.90;;;22.10;92.50;;;;;;6177291;28;20524;-82
2021/08/27 13:44:44;;;;;;;3.63;2.90;;;21.80;91.90;;;;;;6177357;28;20027;-80
2021/08/27 13:47:45;;;;;;;3.13;2.60;;;21.60;91.20;;;;;;6177185;28;20448;-80
2021/08/27 13:50:46;;;;;;;2.65;2.42;;;21.40;90.40;;;;;;6159854;28;20026;-85
2021/08/27 13:53:47;;;;;;;4.73;2.80;;;21.20;90.10;;;;;;6177232;28;20030;-84
2021/08/27 13:56:48;;;;;;;4.53;2.80;;;;;;;;;;6177516;28;20038;-82
2021/08/27 13:59:48;;;;;;;3.40;2.75;;;21.30;89.50;;;;;;6176947;28;20051;-83
2021/08/27 14:02:49;;;;;;;3.83;2.60;;;21.30;90.20;;;;;;6177138;28;20055;-85
2021/08/27 14:05:49;;;;;;;4.03;2.90;;;21.50;90.80;;;;;;6176958;28;20037;-80
2021/08/27 14:08:50;;;;;;;3.70;3.00;;;21.60;88.20;;;;;;6176670;28;20026;-82
2021/08/27 14:11:51;;;;;;;3.40;2.70;;;21.80;90.20;;;;;;6177024;28;20038;-85
2021/08/27 14:14:52;;;;;;;2.90;2.65;;;;;;;;;;6176749;28;20165;-82
2021/08/27 14:17:53;;;;;;;4.82;2.70;;;;;;;;;;6176392;28;20022;-85
2021/08/27 14:20:53;;;;;;;4.43;2.80;;;20.70;86.90;;;;;;6176538;28;20046;-83
2021/08/27 14:23:54;;;;;;;3.00;2.42;;;20.10;89.40;;;;;;6176478;28;20027;-82
2021/08/27 14:26:55;;;;;;;5.75;2.97;;;19.60;99.90;;;;;;6159023;28;20054;-81
2021/08/27 14:30:01;;;;;;;4.13;3.10;;;19.50;92.50;;;;;;6143146;28;20445;-82
2021/08/27 14:33:05;;;;;;;4.00;2.78;;;19.30;99.90;;;;;;6176792;28;20033;-82
2021/08/27 14:36:05;;;;;;;4.55;2.88;;;19.50;99.90;;;;;;6176245;28;20041;-85
2021/08/27 14:39:06;;;;;;;3.90;2.88;;;19.70;92.30;;;;;;6158859;28;20050;-80
2021/08/27 14:42:07;;;;;;;3.22;2.50;;;20.30;99.30;;;;;;6175791;28;20417;-84
2021/08/27 14:45:08;;;;;;;4.25;2.60;;;20.30;91.40;;;;;;6158857;28;20133;-83
2021/08/27 14:48:09;;;;;;;3.47;2.67;;;20.70;95.70;;;;;;6158626;28;20023;-80
2021/08/27 14:51:09;;;;;;;3.33;2.50;;;20.70;91.00;;;;;;6175709;28;20019;-83
2021/08/27 14:54:10;;;;;;;5.20;2.55;;;;;;;;;;6176020;28;20034;-81
2021/08/27 14:57:11;;;;;;;3.75;2.53;;;20.90;87.50;;;;;;6175773;28;20165;-83
2021/08/27 15:00:12;;;;;;;3.38;2.28;;;21.00;97.00;;;;;;6175553;28;20453;-79
2021/08/27 15:03:13;;;;;;;3.23;2.87;;;21.00;87.30;;;;;;6157940;28;20058;-80
2021/08/27 15:06:13;;;;;;;3.60;2.78;;;21.10;91.30;;;;;;6158372;28;20054;-80
2021/08/27 15:09:14;;;;;;;5.28;2.90;;;21.00;90.60;;;;;;6175561;28;20094;-80
2021/08/27 15:12:16;;;;;;;3.42;2.90;;;21.10;89.80;;;;;;6175628;28;20085;-79
2021/08/27 15:15:17;;;;;;;4.47;2.85;;;21.00;90.30;;;;;;6175482;28;20027;-80
2021/08/27 15:18:17;;;;;;;4.65;3.03;;;20.80;90.90;;;;;;6175016;28;20026;-83
2021/08/27 15:21:18;;;;;;;3.10;2.58;;;20.40;89.90;;;;;;6175550;28;20165;-82
2021/08/27 15:24:19;;;;;;;5.03;2.72;;;20.20;90.10;;;;;;6174981;28;20516;-79
2021/08/27 15:27:19;;;;;;;4.10;2.83;;;19.90;89.70;;;;;;6158264;28;20019;-82
2021/08/27 15:30:20;;;;;;;3.75;2.78;;;19.80;90.80;;;;;;6141925;28;20027;-79
2021/08/27 15:33:21;;;;;;;4.00;2.67;;;19.80;91.60;;;;;;6142141;28;20065;-82
2021/08/27 15:36:21;;;;;;;4.13;2.85;;;19.90;97.90;;;;;;6177168;28;20019;-81
2021/08/27 15:39:22;;;;;;;4.35;2.90;;;20.10;90.30;;;;;;6177481;28;20027;-82
2021/08/27 15:42:23;;;;;;;3.22;2.83;;;;;;;;;;6175288;28;20109;-84
2021/08/27 15:45:23;;;;;;;2.97;2.67;;;20.20;87.60;;;;;;6174276;28;20364;-79
2021/08/27 15:48:25;;;;;;;3.80;3.13;;;20.30;90.70;;;;;;6157403;28;20050;-81
2021/08/27 15:51:25;;;;;;;3.83;2.67;;;20.10;90.40;;;;;;6174615;28;20038;-83
2021/08/27 15:54:26;;;;;;;4.68;2.90;;;20.10;90.80;;;;;;6174970;28;20728;-85
2021/08/27 15:57:27;;;;;;;5.80;3.15;;;20.10;90.80;;;;;;6141452;28;20027;-80
2021/08/27 16:00:27;;;;;;;3.85;3.00;;;20.30;90.60;;;;;;6174685;28;20373;-80
2021/08/27 16:03:28;;;;;;;5.07;2.55;;;20.10;91.10;;;;;;6174506;28;20051;-79
2021/08/27 16:06:29;;;;;;;4.53;2.95;;;20.00;90.20;;;;;;6126045;28;20469;-81
2021/08/27 16:09:29;;;;;;;4.28;2.75;;;19.90;90.60;;;;;;6141363;28;20070;-79
2021/08/27 16:12:30;;;;;;;3.70;2.78;;;19.70;89.90;;;;;;6157168;28;20027;-79
2021/08/27 16:15:31;;;;;;;5.80;3.03;;;19.40;90.80;;;;;;6141518;28;20369;-80